sensor_id;sensor_type;location;lat;lon;timestamp;temperature;humidity
4433;DHT22;2229;48.708;9.706;2022-08-25T00:01:52;19.30;94.00
4433;DHT22;2229;48.708;9.706;2022-08-25T00:04:20;19.30;94.00
4433;DHT22;2229;48.708;9.706;2022-08-25T00:06:48;19.20;94.10
4433;DHT22;2229;48.708;9.706;2022-08-25T00:09:21;19.30;94.10
4433;DHT22;2229;48.708;9.706;2022-08-25T00:11:54;19.30;94.20
4433;DHT22;2229;48.708;9.706;2022-08-25T00:14:42;19.30;94.30
4433;DHT22;2229;48.708;9.706;2022-08-25T00:17:09;19.30;94.40
4433;DHT22;2229;48.708;9.706;2022-08-25T00:19:37;19.30;94.40
4433;DHT22;2229;48.708;9.706;2022-08-25T00:22:07;19.30;94.80
4433;DHT22;2229;48.708;9.706;2022-08-25T00:24:36;19.30;94.50
4433;DHT22;2229;48.708;9.706;2022-08-25T00:27:03;19.30;94.50
4433;DHT22;2229;48.708;9.706;2022-08-25T00:29:31;19.40;94.60
4433;DHT22;2229;48.708;9.706;2022-08-25T00:32:01;19.40;94.60
4433;DHT22;2229;48.708;9.706;2022-08-25T00:34:31;19.40;94.50
4433;DHT22;2229;48.708;9.706;2022-08-25T00:36:59;19.40;94.50
4433;DHT22;2229;48.708;9.706;2022-08-25T00:39:26;19.30;94.50
4433;DHT22;2229;48.708;9.706;2022-08-25T00:41:55;19.20;94.50
4433;DHT22;2229;48.708;9.706;2022-08-25T00:44:24;19.10;94.70
4433;DHT22;2229;48.708;9.706;2022-08-25T00:46:53;19.00;94.80
4433;DHT22;2229;48.708;9.706;2022-08-25T00:49:26;19.00;95.00
4433;DHT22;2229;48.708;9.706;2022-08-25T00:51:58;18.90;95.10
4433;DHT22;2229;48.708;9.706;2022-08-25T00:54:31;18.90;95.40
4433;DHT22;2229;48.708;9.706;2022-08-25T00:57:02;18.90;95.40
4433;DHT22;2229;48.708;9.706;2022-08-25T00:59:30;18.80;95.60
4433;DHT22;2229;48.708;9.706;2022-08-25T01:01:59;18.80;95.70
4433;DHT22;2229;48.708;9.706;2022-08-25T01:04:26;18.80;95.80
4433;DHT22;2229;48.708;9.706;2022-08-25T01:06:55;18.80;95.90
4433;DHT22;2229;48.708;9.706;2022-08-25T01:09:23;18.70;96.00
4433;DHT22;2229;48.708;9.706;2022-08-25T01:11:51;18.70;96.20
4433;DHT22;2229;48.708;9.706;2022-08-25T01:14:20;18.70;96.30
4433;DHT22;2229;48.708;9.706;2022-08-25T01:16:49;18.80;96.50
4433;DHT22;2229;48.708;9.706;2022-08-25T01:19:18;18.80;96.50
4433;DHT22;2229;48.708;9.706;2022-08-25T01:21:49;18.90;96.60
4433;DHT22;2229;48.708;9.706;2022-08-25T01:24:23;18.90;96.60
4433;DHT22;2229;48.708;9.706;2022-08-25T01:26:52;19.00;96.60
4433;DHT22;2229;48.708;9.706;2022-08-25T01:29:19;19.00;96.40
4433;DHT22;2229;48.708;9.706;2022-08-25T01:31:54;18.90;96.30
4433;DHT22;2229;48.708;9.706;2022-08-25T01:34:24;19.00;96.50
4433;DHT22;2229;48.708;9.706;2022-08-25T01:36:54;18.80;96.40
4433;DHT22;2229;48.708;9.706;2022-08-25T01:39:22;18.80;96.60
4433;DHT22;2229;48.708;9.706;2022-08-25T01:42:17;18.80;96.80
4433;DHT22;2229;48.708;9.706;2022-08-25T01:44:46;18.80;96.90
4433;DHT22;2229;48.708;9.706;2022-08-25T01:47:14;18.80;97.10
4433;DHT22;2229;48.708;9.706;2022-08-25T01:49:41;18.80;97.20
4433;DHT22;2229;48.708;9.706;2022-08-25T01:52:15;18.80;97.20
4433;DHT22;2229;48.708;9.706;2022-08-25T01:54:42;18.80;97.20
4433;DHT22;2229;48.708;9.706;2022-08-25T01:57:10;18.70;97.30
4433;DHT22;2229;48.708;9.706;2022-08-25T01:59:37;18.70;97.40
4433;DHT22;2229;48.708;9.706;2022-08-25T02:02:05;18.70;97.50
4433;DHT22;2229;48.708;9.706;2022-08-25T02:04:32;18.70;97.70
4433;DHT22;2229;48.708;9.706;2022-08-25T02:07:02;18.70;97.80
4433;DHT22;2229;48.708;9.706;2022-08-25T02:09:31;18.70;97.90
4433;DHT22;2229;48.708;9.706;2022-08-25T02:11:58;18.70;98.00
4433;DHT22;2229;48.708;9.706;2022-08-25T02:14:26;18.60;98.00
4433;DHT22;2229;48.708;9.706;2022-08-25T02:16:54;18.60;98.00
4433;DHT22;2229;48.708;9.706;2022-08-25T02:19:23;18.60;98.10
4433;DHT22;2229;48.708;9.706;2022-08-25T02:21:50;18.60;98.20
4433;DHT22;2229;48.708;9.706;2022-08-25T02:24:19;18.50;98.20
4433;DHT22;2229;48.708;9.706;2022-08-25T02:26:48;18.60;98.40
4433;DHT22;2229;48.708;9.706;2022-08-25T02:29:16;18.60;98.60
4433;DHT22;2229;48.708;9.706;2022-08-25T02:31:44;18.60;98.70
4433;DHT22;2229;48.708;9.706;2022-08-25T02:34:12;18.50;98.70
4433;DHT22;2229;48.708;9.706;2022-08-25T02:36:40;18.50;98.80
4433;DHT22;2229;48.708;9.706;2022-08-25T02:39:09;18.50;98.90
4433;DHT22;2229;48.708;9.706;2022-08-25T02:41:37;18.50;98.90
4433;DHT22;2229;48.708;9.706;2022-08-25T02:44:06;18.40;98.80
4433;DHT22;2229;48.708;9.706;2022-08-25T02:46:34;18.40;98.90
4433;DHT22;2229;48.708;9.706;2022-08-25T02:49:02;18.30;98.90
4433;DHT22;2229;48.708;9.706;2022-08-25T02:51:30;18.30;99.00
4433;DHT22;2229;48.708;9.706;2022-08-25T02:53:58;18.20;99.10
4433;DHT22;2229;48.708;9.706;2022-08-25T02:56:26;18.30;99.40
4433;DHT22;2229;48.708;9.706;2022-08-25T02:58:53;18.20;99.40
4433;DHT22;2229;48.708;9.706;2022-08-25T03:01:22;18.20;99.70
4433;DHT22;2229;48.708;9.706;2022-08-25T03:03:51;18.10;99.80
4433;DHT22;2229;48.708;9.706;2022-08-25T03:06:20;18.10;99.90
4433;DHT22;2229;48.708;9.706;2022-08-25T03:08:50;18.10;99.90
4433;DHT22;2229;48.708;9.706;2022-08-25T03:11:18;18.00;99.90
4433;DHT22;2229;48.708;9.706;2022-08-25T03:13:45;18.00;99.90
4433;DHT22;2229;48.708;9.706;2022-08-25T03:16:16;18.00;99.90
4433;DHT22;2229;48.708;9.706;2022-08-25T03:18:45;18.00;99.90
4433;DHT22;2229;48.708;9.706;2022-08-25T03:21:13;18.00;99.90
4433;DHT22;2229;48.708;9.706;2022-08-25T03:23:40;17.90;99.90
4433;DHT22;2229;48.708;9.706;2022-08-25T03:26:08;17.90;99.90
4433;DHT22;2229;48.708;9.706;2022-08-25T03:28:53;17.80;99.90
4433;DHT22;2229;48.708;9.706;2022-08-25T03:31:20;17.80;99.90
4433;DHT22;2229;48.708;9.706;2022-08-25T03:33:49;17.80;99.90
4433;DHT22;2229;48.708;9.706;2022-08-25T03:36:16;17.80;99.90
4433;DHT22;2229;48.708;9.706;2022-08-25T03:38:44;17.80;99.90
4433;DHT22;2229;48.708;9.706;2022-08-25T03:41:13;17.80;99.90
4433;DHT22;2229;48.708;9.706;2022-08-25T03:43:41;17.90;99.90
4433;DHT22;2229;48.708;9.706;2022-08-25T03:46:15;17.90;99.90
4433;DHT22;2229;48.708;9.706;2022-08-25T03:48:42;18.00;99.90
4433;DHT22;2229;48.708;9.706;2022-08-25T03:51:17;18.00;99.90
4433;DHT22;2229;48.708;9.706;2022-08-25T03:53:44;18.00;99.90
4433;DHT22;2229;48.708;9.706;2022-08-25T03:56:11;18.00;99.90
4433;DHT22;2229;48.708;9.706;2022-08-25T03:58:38;18.00;99.90
4433;DHT22;2229;48.708;9.706;2022-08-25T04:01:06;18.00;99.90
4433;DHT22;2229;48.708;9.706;2022-08-25T04:03:33;18.00;99.90
4433;DHT22;2229;48.708;9.706;2022-08-25T04:06:00;17.90;99.90
4433;DHT22;2229;48.708;9.706;2022-08-25T04:08:29;17.90;99.90
4433;DHT22;2229;48.708;9.706;2022-08-25T04:10:56;17.90;99.90
4433;DHT22;2229;48.708;9.706;2022-08-25T04:13:23;17.80;99.90
4433;DHT22;2229;48.708;9.706;2022-08-25T04:15:50;17.70;99.90
4433;DHT22;2229;48.708;9.706;2022-08-25T04:18:17;17.70;99.90
4433;DHT22;2229;48.708;9.706;2022-08-25T04:20:45;17.70;99.90
4433;DHT22;2229;48.708;9.706;2022-08-25T04:23:12;17.60;99.90
4433;DHT22;2229;48.708;9.706;2022-08-25T04:25:41;17.60;99.90
4433;DHT22;2229;48.708;9.706;2022-08-25T04:28:08;17.60;99.90
4433;DHT22;2229;48.708;9.706;2022-08-25T04:30:35;17.60;99.90
4433;DHT22;2229;48.708;9.706;2022-08-25T04:33:02;17.50;99.90
4433;DHT22;2229;48.708;9.706;2022-08-25T04:35:30;17.50;99.90
4433;DHT22;2229;48.708;9.706;2022-08-25T04:37:57;17.50;99.90
4433;DHT22;2229;48.708;9.706;2022-08-25T04:40:24;17.40;99.90
4433;DHT22;2229;48.708;9.706;2022-08-25T04:42:53;17.40;99.90
4433;DHT22;2229;48.708;9.706;2022-08-25T04:45:29;17.40;99.90
4433;DHT22;2229;48.708;9.706;2022-08-25T04:47:56;17.40;99.90
4433;DHT22;2229;48.708;9.706;2022-08-25T04:50:25;17.40;99.90
4433;DHT22;2229;48.708;9.706;2022-08-25T04:52:52;17.40;99.90
4433;DHT22;2229;48.708;9.706;2022-08-25T04:55:20;17.50;99.90
4433;DHT22;2229;48.708;9.706;2022-08-25T04:57:47;17.50;99.90
4433;DHT22;2229;48.708;9.706;2022-08-25T05:00:16;17.50;99.90
4433;DHT22;2229;48.708;9.706;2022-08-25T05:02:44;17.50;99.90
4433;DHT22;2229;48.708;9.706;2022-08-25T05:05:16;17.50;99.90
4433;DHT22;2229;48.708;9.706;2022-08-25T05:07:43;17.60;99.90
4433;DHT22;2229;48.708;9.706;2022-08-25T05:10:12;17.60;99.90
4433;DHT22;2229;48.708;9.706;2022-08-25T05:12:39;17.70;99.90
4433;DHT22;2229;48.708;9.706;2022-08-25T05:15:07;17.70;99.90
4433;DHT22;2229;48.708;9.706;2022-08-25T05:17:50;17.80;99.90
4433;DHT22;2229;48.708;9.706;2022-08-25T05:20:17;17.90;99.90
4433;DHT22;2229;48.708;9.706;2022-08-25T05:22:44;18.00;99.90
4433;DHT22;2229;48.708;9.706;2022-08-25T05:25:12;18.10;99.90
4433;DHT22;2229;48.708;9.706;2022-08-25T05:27:41;18.10;99.90
4433;DHT22;2229;48.708;9.706;2022-08-25T05:30:10;18.20;99.90
4433;DHT22;2229;48.708;9.706;2022-08-25T05:32:37;18.30;99.90
4433;DHT22;2229;48.708;9.706;2022-08-25T05:35:07;18.40;99.90
4433;DHT22;2229;48.708;9.706;2022-08-25T05:37:34;18.50;99.90
4433;DHT22;2229;48.708;9.706;2022-08-25T05:40:03;18.60;99.90
4433;DHT22;2229;48.708;9.706;2022-08-25T05:42:31;18.60;99.90
4433;DHT22;2229;48.708;9.706;2022-08-25T05:44:58;18.70;99.90
4433;DHT22;2229;48.708;9.706;2022-08-25T05:47:26;18.80;99.90
4433;DHT22;2229;48.708;9.706;2022-08-25T05:49:53;18.90;99.90
4433;DHT22;2229;48.708;9.706;2022-08-25T05:52:22;19.00;99.90
4433;DHT22;2229;48.708;9.706;2022-08-25T05:54:49;19.10;99.90
4433;DHT22;2229;48.708;9.706;2022-08-25T05:57:16;19.20;99.90
4433;DHT22;2229;48.708;9.706;2022-08-25T05:59:44;19.30;99.90
4433;DHT22;2229;48.708;9.706;2022-08-25T06:02:11;19.30;99.90
4433;DHT22;2229;48.708;9.706;2022-08-25T06:04:55;19.40;99.90
4433;DHT22;2229;48.708;9.706;2022-08-25T06:07:24;19.50;99.90
4433;DHT22;2229;48.708;9.706;2022-08-25T06:09:51;19.60;99.90
4433;DHT22;2229;48.708;9.706;2022-08-25T06:12:18;19.70;99.90
4433;DHT22;2229;48.708;9.706;2022-08-25T06:14:55;19.70;99.90
4433;DHT22;2229;48.708;9.706;2022-08-25T06:17:22;19.90;99.90
4433;DHT22;2229;48.708;9.706;2022-08-25T06:19:52;19.90;99.90
4433;DHT22;2229;48.708;9.706;2022-08-25T06:22:19;20.00;99.90
4433;DHT22;2229;48.708;9.706;2022-08-25T06:24:48;20.10;99.90
4433;DHT22;2229;48.708;9.706;2022-08-25T06:27:16;20.20;99.90
4433;DHT22;2229;48.708;9.706;2022-08-25T06:29:46;20.30;99.90
4433;DHT22;2229;48.708;9.706;2022-08-25T06:32:16;20.40;99.90
4433;DHT22;2229;48.708;9.706;2022-08-25T06:34:44;20.60;99.90
4433;DHT22;2229;48.708;9.706;2022-08-25T06:37:11;20.70;99.90
4433;DHT22;2229;48.708;9.706;2022-08-25T06:39:38;20.80;99.90
4433;DHT22;2229;48.708;9.706;2022-08-25T06:42:07;20.90;99.90
4433;DHT22;2229;48.708;9.706;2022-08-25T06:44:35;21.00;99.90
4433;DHT22;2229;48.708;9.706;2022-08-25T06:47:02;21.10;99.90
4433;DHT22;2229;48.708;9.706;2022-08-25T06:49:29;21.20;99.90
4433;DHT22;2229;48.708;9.706;2022-08-25T06:51:56;21.40;99.90
4433;DHT22;2229;48.708;9.706;2022-08-25T06:54:26;21.50;99.90
4433;DHT22;2229;48.708;9.706;2022-08-25T06:56:54;21.70;99.90
4433;DHT22;2229;48.708;9.706;2022-08-25T06:59:23;21.80;99.90
4433;DHT22;2229;48.708;9.706;2022-08-25T07:01:50;22.00;99.90
4433;DHT22;2229;48.708;9.706;2022-08-25T07:04:17;22.10;99.90
4433;DHT22;2229;48.708;9.706;2022-08-25T07:06:45;22.30;99.90
4433;DHT22;2229;48.708;9.706;2022-08-25T07:09:13;22.40;99.90
4433;DHT22;2229;48.708;9.706;2022-08-25T07:11:41;22.60;99.90
4433;DHT22;2229;48.708;9.706;2022-08-25T07:14:10;22.70;99.90
4433;DHT22;2229;48.708;9.706;2022-08-25T07:16:40;22.90;99.90
4433;DHT22;2229;48.708;9.706;2022-08-25T07:19:08;23.10;99.90
4433;DHT22;2229;48.708;9.706;2022-08-25T07:21:38;23.40;99.80
4433;DHT22;2229;48.708;9.706;2022-08-25T07:24:08;23.70;99.50
4433;DHT22;2229;48.708;9.706;2022-08-25T07:26:36;24.10;98.40
4433;DHT22;2229;48.708;9.706;2022-08-25T07:29:05;24.40;97.20
4433;DHT22;2229;48.708;9.706;2022-08-25T07:31:32;24.80;96.50
4433;DHT22;2229;48.708;9.706;2022-08-25T07:34:01;25.10;95.00
4433;DHT22;2229;48.708;9.706;2022-08-25T07:36:46;25.70;94.50
4433;DHT22;2229;48.708;9.706;2022-08-25T07:39:13;26.60;92.20
4433;DHT22;2229;48.708;9.706;2022-08-25T07:41:42;27.60;90.50
4433;DHT22;2229;48.708;9.706;2022-08-25T07:44:11;28.80;85.80
4433;DHT22;2229;48.708;9.706;2022-08-25T07:46:38;29.80;82.00
4433;DHT22;2229;48.708;9.706;2022-08-25T07:49:07;30.60;77.00
4433;DHT22;2229;48.708;9.706;2022-08-25T07:51:35;31.40;74.00
4433;DHT22;2229;48.708;9.706;2022-08-25T07:54:04;32.20;71.80
4433;DHT22;2229;48.708;9.706;2022-08-25T07:56:32;33.00;70.10
4433;DHT22;2229;48.708;9.706;2022-08-25T07:59:02;33.60;65.90
4433;DHT22;2229;48.708;9.706;2022-08-25T08:01:29;34.10;63.20
4433;DHT22;2229;48.708;9.706;2022-08-25T08:03:57;34.30;62.90
4433;DHT22;2229;48.708;9.706;2022-08-25T08:06:25;34.60;61.50
4433;DHT22;2229;48.708;9.706;2022-08-25T08:08:53;35.10;60.80
4433;DHT22;2229;48.708;9.706;2022-08-25T08:11:25;35.50;59.00
4433;DHT22;2229;48.708;9.706;2022-08-25T08:13:54;35.60;58.70
4433;DHT22;2229;48.708;9.706;2022-08-25T08:16:24;35.90;57.70
4433;DHT22;2229;48.708;9.706;2022-08-25T08:18:51;36.00;57.10
4433;DHT22;2229;48.708;9.706;2022-08-25T08:21:20;36.20;57.00
4433;DHT22;2229;48.708;9.706;2022-08-25T08:23:50;36.50;56.90
4433;DHT22;2229;48.708;9.706;2022-08-25T08:26:17;36.60;56.80
4433;DHT22;2229;48.708;9.706;2022-08-25T08:28:45;36.70;55.50
4433;DHT22;2229;48.708;9.706;2022-08-25T08:31:13;36.80;55.50
4433;DHT22;2229;48.708;9.706;2022-08-25T08:33:40;36.80;54.60
4433;DHT22;2229;48.708;9.706;2022-08-25T08:36:09;36.90;55.10
4433;DHT22;2229;48.708;9.706;2022-08-25T08:38:44;37.00;54.30
4433;DHT22;2229;48.708;9.706;2022-08-25T08:41:28;37.00;54.50
4433;DHT22;2229;48.708;9.706;2022-08-25T08:44:20;37.10;54.20
4433;DHT22;2229;48.708;9.706;2022-08-25T08:46:58;37.60;54.10
4433;DHT22;2229;48.708;9.706;2022-08-25T08:49:34;37.00;53.80
4433;DHT22;2229;48.708;9.706;2022-08-25T08:52:05;37.10;53.70
4433;DHT22;2229;48.708;9.706;2022-08-25T08:54:36;37.10;53.90
4433;DHT22;2229;48.708;9.706;2022-08-25T08:57:11;37.10;54.20
4433;DHT22;2229;48.708;9.706;2022-08-25T08:59:47;37.30;53.70
4433;DHT22;2229;48.708;9.706;2022-08-25T09:02:24;37.40;53.10
4433;DHT22;2229;48.708;9.706;2022-08-25T09:04:57;37.50;53.20
4433;DHT22;2229;48.708;9.706;2022-08-25T09:07:31;37.60;52.70
4433;DHT22;2229;48.708;9.706;2022-08-25T09:10:01;37.70;53.70
4433;DHT22;2229;48.708;9.706;2022-08-25T09:12:34;37.90;52.70
4433;DHT22;2229;48.708;9.706;2022-08-25T09:15:13;38.10;52.20
4433;DHT22;2229;48.708;9.706;2022-08-25T09:18:04;38.40;52.20
4433;DHT22;2229;48.708;9.706;2022-08-25T09:20:50;38.60;51.70
4433;DHT22;2229;48.708;9.706;2022-08-25T09:23:31;38.70;51.60
4433;DHT22;2229;48.708;9.706;2022-08-25T09:26:23;38.80;50.10
4433;DHT22;2229;48.708;9.706;2022-08-25T09:29:00;38.60;51.10
4433;DHT22;2229;48.708;9.706;2022-08-25T09:31:31;38.70;51.50
4433;DHT22;2229;48.708;9.706;2022-08-25T09:34:03;38.80;51.60
4433;DHT22;2229;48.708;9.706;2022-08-25T09:36:31;39.00;51.70
4433;DHT22;2229;48.708;9.706;2022-08-25T09:38:59;39.20;51.70
4433;DHT22;2229;48.708;9.706;2022-08-25T09:41:41;39.20;50.30
4433;DHT22;2229;48.708;9.706;2022-08-25T09:44:19;39.00;50.40
4433;DHT22;2229;48.708;9.706;2022-08-25T09:46:56;39.00;50.70
4433;DHT22;2229;48.708;9.706;2022-08-25T09:49:35;38.80;50.20
4433;DHT22;2229;48.708;9.706;2022-08-25T09:52:23;38.80;50.70
4433;DHT22;2229;48.708;9.706;2022-08-25T09:54:50;38.80;50.40
4433;DHT22;2229;48.708;9.706;2022-08-25T09:57:30;38.80;50.50
4433;DHT22;2229;48.708;9.706;2022-08-25T10:00:11;38.70;51.30
4433;DHT22;2229;48.708;9.706;2022-08-25T10:02:39;38.90;51.20
4433;DHT22;2229;48.708;9.706;2022-08-25T10:05:18;39.00;51.10
4433;DHT22;2229;48.708;9.706;2022-08-25T10:07:50;39.00;50.70
4433;DHT22;2229;48.708;9.706;2022-08-25T10:10:28;39.00;50.60
4433;DHT22;2229;48.708;9.706;2022-08-25T10:12:55;39.00;49.80
4433;DHT22;2229;48.708;9.706;2022-08-25T10:15:29;38.90;49.50
4433;DHT22;2229;48.708;9.706;2022-08-25T10:18:19;38.60;49.10
4433;DHT22;2229;48.708;9.706;2022-08-25T10:21:00;38.20;49.90
4433;DHT22;2229;48.708;9.706;2022-08-25T10:23:28;38.10;50.30
4433;DHT22;2229;48.708;9.706;2022-08-25T10:25:58;38.10;50.50
4433;DHT22;2229;48.708;9.706;2022-08-25T10:28:33;38.30;50.70
4433;DHT22;2229;48.708;9.706;2022-08-25T10:31:09;38.30;49.00
4433;DHT22;2229;48.708;9.706;2022-08-25T10:33:47;38.10;49.20
4433;DHT22;2229;48.708;9.706;2022-08-25T10:36:21;37.90;49.80
4433;DHT22;2229;48.708;9.706;2022-08-25T10:38:53;38.00;50.00
4433;DHT22;2229;48.708;9.706;2022-08-25T10:41:37;38.00;49.80
4433;DHT22;2229;48.708;9.706;2022-08-25T10:44:17;38.10;49.70
4433;DHT22;2229;48.708;9.706;2022-08-25T10:47:29;37.90;49.30
4433;DHT22;2229;48.708;9.706;2022-08-25T10:50:04;37.90;49.70
4433;DHT22;2229;48.708;9.706;2022-08-25T10:52:38;37.70;48.80
4433;DHT22;2229;48.708;9.706;2022-08-25T10:55:16;37.40;48.40
4433;DHT22;2229;48.708;9.706;2022-08-25T10:57:53;36.70;49.00
4433;DHT22;2229;48.708;9.706;2022-08-25T11:00:27;36.20;49.70
4433;DHT22;2229;48.708;9.706;2022-08-25T11:03:20;35.60;50.20
4433;DHT22;2229;48.708;9.706;2022-08-25T11:05:58;35.00;51.40
4433;DHT22;2229;48.708;9.706;2022-08-25T11:08:32;34.50;52.50
4433;DHT22;2229;48.708;9.706;2022-08-25T11:11:04;34.20;53.20
4433;DHT22;2229;48.708;9.706;2022-08-25T11:13:40;34.00;53.60
4433;DHT22;2229;48.708;9.706;2022-08-25T11:16:11;34.00;53.90
4433;DHT22;2229;48.708;9.706;2022-08-25T11:18:54;34.10;53.70
4433;DHT22;2229;48.708;9.706;2022-08-25T11:21:26;34.00;53.80
4433;DHT22;2229;48.708;9.706;2022-08-25T11:24:00;33.60;53.60
4433;DHT22;2229;48.708;9.706;2022-08-25T11:26:33;33.20;54.00
4433;DHT22;2229;48.708;9.706;2022-08-25T11:29:04;33.00;54.50
4433;DHT22;2229;48.708;9.706;2022-08-25T11:31:38;33.00;54.80
4433;DHT22;2229;48.708;9.706;2022-08-25T11:34:10;33.00;55.00
4433;DHT22;2229;48.708;9.706;2022-08-25T11:36:41;33.00;54.40
4433;DHT22;2229;48.708;9.706;2022-08-25T11:39:15;32.90;53.60
4433;DHT22;2229;48.708;9.706;2022-08-25T11:41:54;32.70;54.00
4433;DHT22;2229;48.708;9.706;2022-08-25T11:44:43;32.70;54.20
4433;DHT22;2229;48.708;9.706;2022-08-25T11:47:34;32.60;54.30
4433;DHT22;2229;48.708;9.706;2022-08-25T11:50:08;32.30;55.20
4433;DHT22;2229;48.708;9.706;2022-08-25T11:52:51;31.90;55.80
4433;DHT22;2229;48.708;9.706;2022-08-25T11:55:26;31.70;56.80
4433;DHT22;2229;48.708;9.706;2022-08-25T11:58:21;31.50;56.20
4433;DHT22;2229;48.708;9.706;2022-08-25T12:00:50;31.10;56.30
4433;DHT22;2229;48.708;9.706;2022-08-25T12:03:52;30.80;57.00
4433;DHT22;2229;48.708;9.706;2022-08-25T12:06:28;30.80;57.60
4433;DHT22;2229;48.708;9.706;2022-08-25T12:09:16;30.70;57.40
4433;DHT22;2229;48.708;9.706;2022-08-25T12:11:52;30.70;57.70
4433;DHT22;2229;48.708;9.706;2022-08-25T12:14:50;30.90;57.80
4433;DHT22;2229;48.708;9.706;2022-08-25T12:17:24;31.00;58.30
4433;DHT22;2229;48.708;9.706;2022-08-25T12:19:57;31.10;58.20
4433;DHT22;2229;48.708;9.706;2022-08-25T12:22:52;31.20;58.50
4433;DHT22;2229;48.708;9.706;2022-08-25T12:25:36;31.10;58.30
4433;DHT22;2229;48.708;9.706;2022-08-25T12:28:23;30.90;58.10
4433;DHT22;2229;48.708;9.706;2022-08-25T12:30:57;30.70;57.90
4433;DHT22;2229;48.708;9.706;2022-08-25T12:33:34;30.50;58.20
4433;DHT22;2229;48.708;9.706;2022-08-25T12:36:10;30.30;58.50
4433;DHT22;2229;48.708;9.706;2022-08-25T12:38:42;30.10;58.80
4433;DHT22;2229;48.708;9.706;2022-08-25T12:41:11;30.10;59.10
4433;DHT22;2229;48.708;9.706;2022-08-25T12:43:41;30.10;59.40
4433;DHT22;2229;48.708;9.706;2022-08-25T12:46:37;30.20;59.60
4433;DHT22;2229;48.708;9.706;2022-08-25T12:49:14;30.30;59.60
4433;DHT22;2229;48.708;9.706;2022-08-25T12:51:57;30.40;59.90
4433;DHT22;2229;48.708;9.706;2022-08-25T12:54:41;30.50;59.90
4433;DHT22;2229;48.708;9.706;2022-08-25T12:57:22;30.60;58.20
4433;DHT22;2229;48.708;9.706;2022-08-25T12:59:56;30.60;58.20
4433;DHT22;2229;48.708;9.706;2022-08-25T13:02:48;30.60;57.80
4433;DHT22;2229;48.708;9.706;2022-08-25T13:08:35;30.40;57.70
4433;DHT22;2229;48.708;9.706;2022-08-25T13:11:11;30.30;58.00
4433;DHT22;2229;48.708;9.706;2022-08-25T13:13:46;30.10;58.20
4433;DHT22;2229;48.708;9.706;2022-08-25T13:16:20;30.00;58.80
4433;DHT22;2229;48.708;9.706;2022-08-25T13:18:48;30.00;59.40
4433;DHT22;2229;48.708;9.706;2022-08-25T13:21:17;30.10;59.70
4433;DHT22;2229;48.708;9.706;2022-08-25T13:23:48;30.30;59.80
4433;DHT22;2229;48.708;9.706;2022-08-25T13:26:28;30.50;59.70
4433;DHT22;2229;48.708;9.706;2022-08-25T13:28:59;30.70;59.50
4433;DHT22;2229;48.708;9.706;2022-08-25T13:31:27;30.90;59.60
4433;DHT22;2229;48.708;9.706;2022-08-25T13:33:57;31.00;59.60
4433;DHT22;2229;48.708;9.706;2022-08-25T13:36:26;31.10;59.00
4433;DHT22;2229;48.708;9.706;2022-08-25T13:39:16;31.00;58.60
4433;DHT22;2229;48.708;9.706;2022-08-25T13:41:46;30.90;58.80
4433;DHT22;2229;48.708;9.706;2022-08-25T13:44:15;30.90;59.30
4433;DHT22;2229;48.708;9.706;2022-08-25T13:46:43;31.00;59.00
4433;DHT22;2229;48.708;9.706;2022-08-25T13:49:23;31.10;59.30
4433;DHT22;2229;48.708;9.706;2022-08-25T13:51:52;31.20;59.20
4433;DHT22;2229;48.708;9.706;2022-08-25T13:54:24;31.30;59.00
4433;DHT22;2229;48.708;9.706;2022-08-25T13:57:04;31.40;58.80
4433;DHT22;2229;48.708;9.706;2022-08-25T13:59:36;31.40;57.90
4433;DHT22;2229;48.708;9.706;2022-08-25T14:02:05;31.40;57.70
4433;DHT22;2229;48.708;9.706;2022-08-25T14:04:44;31.40;57.10
4433;DHT22;2229;48.708;9.706;2022-08-25T14:07:28;31.40;56.40
4433;DHT22;2229;48.708;9.706;2022-08-25T14:09:58;31.30;56.20
4433;DHT22;2229;48.708;9.706;2022-08-25T14:12:37;31.10;56.40
4433;DHT22;2229;48.708;9.706;2022-08-25T14:15:14;31.00;57.00
4433;DHT22;2229;48.708;9.706;2022-08-25T14:18:01;31.10;57.20
4433;DHT22;2229;48.708;9.706;2022-08-25T14:20:30;31.10;56.60
4433;DHT22;2229;48.708;9.706;2022-08-25T14:23:02;31.00;56.60
4433;DHT22;2229;48.708;9.706;2022-08-25T14:25:30;31.00;56.70
4433;DHT22;2229;48.708;9.706;2022-08-25T14:28:01;31.10;57.30
4433;DHT22;2229;48.708;9.706;2022-08-25T14:30:29;31.10;56.70
4433;DHT22;2229;48.708;9.706;2022-08-25T14:32:57;31.20;56.80
4433;DHT22;2229;48.708;9.706;2022-08-25T14:35:24;31.30;57.60
4433;DHT22;2229;48.708;9.706;2022-08-25T14:37:51;31.50;57.10
4433;DHT22;2229;48.708;9.706;2022-08-25T14:40:19;31.60;56.70
4433;DHT22;2229;48.708;9.706;2022-08-25T14:42:48;31.70;56.70
4433;DHT22;2229;48.708;9.706;2022-08-25T14:45:17;31.70;56.30
4433;DHT22;2229;48.708;9.706;2022-08-25T14:47:45;31.60;55.40
4433;DHT22;2229;48.708;9.706;2022-08-25T14:50:13;31.70;55.50
4433;DHT22;2229;48.708;9.706;2022-08-25T14:52:41;31.60;55.30
4433;DHT22;2229;48.708;9.706;2022-08-25T14:55:10;31.40;55.80
4433;DHT22;2229;48.708;9.706;2022-08-25T14:57:38;31.40;56.20
4433;DHT22;2229;48.708;9.706;2022-08-25T15:00:07;31.40;56.00
4433;DHT22;2229;48.708;9.706;2022-08-25T15:02:40;31.30;55.90
4433;DHT22;2229;48.708;9.706;2022-08-25T15:05:08;31.20;55.70
4433;DHT22;2229;48.708;9.706;2022-08-25T15:07:38;31.30;55.90
4433;DHT22;2229;48.708;9.706;2022-08-25T15:10:23;31.30;56.00
4433;DHT22;2229;48.708;9.706;2022-08-25T15:12:50;31.20;56.20
4433;DHT22;2229;48.708;9.706;2022-08-25T15:15:17;31.20;56.30
4433;DHT22;2229;48.708;9.706;2022-08-25T15:17:46;31.10;56.00
4433;DHT22;2229;48.708;9.706;2022-08-25T15:20:15;30.90;56.30
4433;DHT22;2229;48.708;9.706;2022-08-25T15:22:42;30.80;56.70
4433;DHT22;2229;48.708;9.706;2022-08-25T15:25:49;30.70;56.90
4433;DHT22;2229;48.708;9.706;2022-08-25T15:28:16;30.60;57.00
4433;DHT22;2229;48.708;9.706;2022-08-25T15:30:44;30.60;57.10
4433;DHT22;2229;48.708;9.706;2022-08-25T15:33:13;30.70;56.80
4433;DHT22;2229;48.708;9.706;2022-08-25T15:35:40;30.80;56.70
4433;DHT22;2229;48.708;9.706;2022-08-25T15:38:16;30.90;56.90
4433;DHT22;2229;48.708;9.706;2022-08-25T15:40:43;31.00;57.10
4433;DHT22;2229;48.708;9.706;2022-08-25T15:43:10;31.00;56.60
4433;DHT22;2229;48.708;9.706;2022-08-25T15:45:38;31.00;56.00
4433;DHT22;2229;48.708;9.706;2022-08-25T15:48:29;31.00;55.80
4433;DHT22;2229;48.708;9.706;2022-08-25T15:50:57;31.00;55.90
4433;DHT22;2229;48.708;9.706;2022-08-25T15:53:26;31.00;56.10
4433;DHT22;2229;48.708;9.706;2022-08-25T15:55:54;31.00;55.80
4433;DHT22;2229;48.708;9.706;2022-08-25T15:58:23;31.00;55.70
4433;DHT22;2229;48.708;9.706;2022-08-25T16:00:50;31.00;55.90
4433;DHT22;2229;48.708;9.706;2022-08-25T16:03:17;31.00;56.10
4433;DHT22;2229;48.708;9.706;2022-08-25T16:05:46;31.00;56.30
4433;DHT22;2229;48.708;9.706;2022-08-25T16:08:15;31.00;56.40
4433;DHT22;2229;48.708;9.706;2022-08-25T16:10:45;31.00;56.20
4433;DHT22;2229;48.708;9.706;2022-08-25T16:13:13;31.00;56.60
4433;DHT22;2229;48.708;9.706;2022-08-25T16:15:45;31.00;56.60
4433;DHT22;2229;48.708;9.706;2022-08-25T16:18:12;30.90;56.20
4433;DHT22;2229;48.708;9.706;2022-08-25T16:20:43;30.70;56.20
4433;DHT22;2229;48.708;9.706;2022-08-25T16:23:12;30.60;56.40
4433;DHT22;2229;48.708;9.706;2022-08-25T16:25:41;30.50;56.70
4433;DHT22;2229;48.708;9.706;2022-08-25T16:28:09;30.40;56.80
4433;DHT22;2229;48.708;9.706;2022-08-25T16:30:37;30.40;57.20
4433;DHT22;2229;48.708;9.706;2022-08-25T16:33:05;30.40;57.10
4433;DHT22;2229;48.708;9.706;2022-08-25T16:35:33;30.40;57.20